Time;durP1;ratioP1;P1;durP2;ratioP2;P2;SDS_P1;SDS_P2;PMS_P1;PMS_P2;Temp;Humidity;BMP_temperature;BMP_pressure;BME280_temperature;BME280_humidity;BME280_pressure;Samples;Min_cycle;Max_cycle;Signal;HPM_P1;HPM_P2
2023/06/20 00:00:40;;;;;;;17.00;11.02;;;;;;;;;;4990942;28;20022;-78
2023/06/20 00:03:05;;;;;;;15.15;10.45;;;;;;;;;;4990921;28;20417;-77
2023/06/20 00:05:30;;;;;;;16.52;11.13;;;;;;;;;;4992171;28;20137;-77
2023/06/20 00:07:56;;;;;;;20.70;12.35;;;;;;;;;;4992209;28;20566;-78
2023/06/20 00:10:22;;;;;;;15.98;11.10;;;;;;;;;;4992208;28;20549;-78
2023/06/20 00:12:47;;;;;;;16.08;11.70;;;;;;;;;;4990659;28;20523;-78
2023/06/20 00:15:13;;;;;;;16.25;12.52;;;;;;;;;;4990300;28;20030;-77
2023/06/20 00:17:38;;;;;;;19.23;11.98;;;;;;;;;;4991714;28;20458;-77
2023/06/20 00:20:06;;;;;;;19.13;11.73;;;;;;;;;;4990343;28;20038;-77
2023/06/20 00:22:35;;;;;;;17.98;12.10;;;;;;;;;;4989127;28;20694;-78
2023/06/20 00:25:04;;;;;;;16.77;12.25;;;;;;;;;;4989388;28;20127;-78
2023/06/20 00:27:30;;;;;;;18.58;12.50;;;;;;;;;;4989349;28;20145;-79
2023/06/20 00:29:56;;;;;;;17.92;11.73;;;;;;;;;;4990779;28;20184;-78
2023/06/20 00:32:21;;;;;;;19.88;11.93;;;;;;;;;;4991735;28;20371;-77
2023/06/20 00:34:48;;;;;;;16.73;11.25;;;;;;;;;;4990368;28;20340;-78
2023/06/20 00:37:14;;;;;;;16.23;11.30;;;;;;;;;;4992084;28;20383;-78
2023/06/20 00:39:39;;;;;;;15.95;11.65;;;;;;;;;;4997145;28;20040;-78
2023/06/20 00:42:05;;;;;;;17.77;12.38;;;;;;;;;;4993745;28;20029;-78
2023/06/20 00:44:30;;;;;;;15.15;12.40;;;;;;;;;;4990209;28;20084;-78
2023/06/20 00:46:57;;;;;;;14.80;11.88;;;;;;;;;;4990230;28;20125;-78
2023/06/20 00:49:22;;;;;;;19.25;11.93;;;;;;;;;;4991866;28;20378;-78
2023/06/20 00:51:49;;;;;;;16.77;12.10;;;;;;;;;;4989914;28;20029;-78
2023/06/20 00:54:15;;;;;;;15.73;12.32;;;;;;;;;;4990088;28;20054;-79
2023/06/20 00:56:42;;;;;;;16.10;12.18;;;;;;;;;;4989947;28;20069;-78
2023/06/20 00:59:08;;;;;;;17.58;11.75;;;;;;;;;;4990099;28;20065;-78
2023/06/20 01:01:33;;;;;;;20.90;12.55;;;;;;;;;;4973920;28;20065;-78
2023/06/20 01:04:00;;;;;;;15.75;12.73;;;;;;;;;;4990870;28;20022;-78
2023/06/20 01:06:43;;;;;;;16.92;12.02;;;;;;;;;;5007701;28;20560;-78
2023/06/20 01:09:29;;;;;;;16.98;12.40;;;;;;;;;;4992562;28;20045;-78
2023/06/20 01:12:09;;;;;;;14.98;11.70;;;;;;;;;;4992146;28;20415;-78
2023/06/20 01:14:39;;;;;;;20.05;12.82;;;;;;;;;;4992943;28;20030;-79
2023/06/20 01:17:14;;;;;;;15.07;12.30;;;;;;;;;;5000728;28;20131;-77
2023/06/20 01:19:53;;;;;;;17.75;11.68;;;;;;;;;;4999949;28;20019;-77
2023/06/20 01:22:43;;;;;;;18.15;11.70;;;;;;;;;;4996862;28;20072;-77
2023/06/20 01:25:17;;;;;;;19.33;12.38;;;;;;;;;;4992919;28;20084;-78
2023/06/20 01:27:56;;;;;;;15.90;11.73;;;;;;;;;;4993872;28;20034;-77
2023/06/20 01:30:25;;;;;;;15.10;11.35;;;;;;;;;;4995577;28;20129;-77
2023/06/20 01:32:54;;;;;;;16.20;12.23;;;;;;;;;;4997884;28;20068;-78
2023/06/20 01:35:25;;;;;;;16.55;12.32;;;;;;;;;;4994950;28;20092;-78
2023/06/20 01:37:56;;;;;;;15.20;11.40;;;;;;;;;;4991908;28;20052;-78
2023/06/20 01:40:24;;;;;;;15.30;12.57;;;;;;;;;;4990095;28;20045;-78
2023/06/20 01:42:55;;;;;;;15.10;12.63;;;;;;;;;;4990845;28;20045;-78
2023/06/20 01:45:21;;;;;;;19.95;12.73;;;;;;;;;;4988914;28;20022;-77
2023/06/20 01:47:50;;;;;;;16.02;12.15;;;;;;;;;;4990557;28;20587;-78
2023/06/20 01:50:17;;;;;;;17.48;12.32;;;;;;;;;;4991134;28;20026;-79
2023/06/20 01:52:45;;;;;;;15.48;12.35;;;;;;;;;;4988808;28;20030;-78
2023/06/20 01:55:12;;;;;;;18.73;12.85;;;;;;;;;;4989288;28;20053;-78
2023/06/20 01:57:38;;;;;;;17.90;11.95;;;;;;;;;;4990627;28;20105;-78
2023/06/20 02:00:09;;;;;;;17.08;12.05;;;;;;;;;;4989147;28;20033;-78
2023/06/20 02:02:35;;;;;;;22.88;12.23;;;;;;;;;;4991339;28;20023;-78
2023/06/20 02:05:04;;;;;;;13.85;11.23;;;;;;;;;;4989529;28;20113;-78
2023/06/20 02:07:31;;;;;;;15.82;11.93;;;;;;;;;;4988547;28;20030;-78
2023/06/20 02:09:58;;;;;;;19.23;12.10;;;;;;;;;;4989730;28;20037;-77
2023/06/20 02:12:24;;;;;;;17.60;11.75;;;;;;;;;;5004629;28;20037;-77
2023/06/20 02:14:52;;;;;;;13.77;11.82;;;;;;;;;;4989736;28;20038;-77
2023/06/20 02:17:19;;;;;;;15.23;11.45;;;;;;;;;;5005062;28;20022;-77
2023/06/20 02:19:44;;;;;;;20.95;12.73;;;;;;;;;;4988824;28;20034;-78
2023/06/20 02:22:13;;;;;;;16.20;11.63;;;;;;;;;;4992471;28;20050;-78
2023/06/20 02:24:42;;;;;;;17.52;12.85;;;;;;;;;;4993937;28;20022;-77
2023/06/20 02:27:09;;;;;;;19.00;13.05;;;;;;;;;;4992572;28;20348;-77
2023/06/20 02:29:38;;;;;;;16.10;13.38;;;;;;;;;;4991861;28;20036;-77
2023/06/20 02:32:05;;;;;;;17.60;12.73;;;;;;;;;;4993491;28;20026;-78
2023/06/20 02:34:33;;;;;;;17.15;12.50;;;;;;;;;;4991664;28;20513;-77
2023/06/20 02:37:00;;;;;;;14.07;11.90;;;;;;;;;;4993465;28;20085;-78
2023/06/20 02:39:26;;;;;;;15.10;12.43;;;;;;;;;;4992187;28;20019;-78
2023/06/20 02:41:51;;;;;;;17.38;12.02;;;;;;;;;;4992000;28;20117;-77
2023/06/20 02:44:17;;;;;;;14.07;11.82;;;;;;;;;;4992738;28;20167;-77
2023/06/20 02:46:57;;;;;;;15.50;12.32;;;;;;;;;;4994440;28;20030;-77
2023/06/20 02:49:50;;;;;;;14.93;12.77;;;;;;;;;;4992859;28;20034;-77
2023/06/20 02:52:50;;;;;;;16.75;12.15;;;;;;;;;;4992883;28;20045;-77
2023/06/20 02:55:38;;;;;;;20.48;15.20;;;;;;;;;;4993323;28;20052;-77
2023/06/20 02:58:15;;;;;;;25.20;12.95;;;;;;;;;;4994257;28;20061;-79
2023/06/20 03:00:48;;;;;;;21.13;12.73;;;;;;;;;;4996136;28;20030;-78
2023/06/20 03:03:20;;;;;;;16.77;12.50;;;;;;;;;;4998617;28;20055;-78
2023/06/20 03:05:47;;;;;;;16.27;12.60;;;;;;;;;;4995318;28;20038;-77
2023/06/20 03:08:15;;;;;;;18.83;12.88;;;;;;;;;;4994722;28;20042;-78
2023/06/20 03:10:42;;;;;;;22.70;13.20;;;;;;;;;;4996196;28;20160;-78
2023/06/20 03:13:14;;;;;;;18.05;12.82;;;;;;;;;;4996545;28;20120;-78
2023/06/20 03:15:40;;;;;;;19.35;13.75;;;;;;;;;;4992220;28;20833;-79
2023/06/20 03:18:07;;;;;;;18.48;12.52;;;;;;;;;;4993945;28;20030;-78
2023/06/20 03:20:33;;;;;;;18.08;12.30;;;;;;;;;;4994081;28;20026;-78
2023/06/20 03:22:58;;;;;;;17.65;12.68;;;;;;;;;;5011707;28;20057;-79
2023/06/20 03:25:24;;;;;;;19.42;13.70;;;;;;;;;;5013659;28;20045;-79
2023/06/20 03:27:49;;;;;;;22.30;14.10;;;;;;;;;;5008072;28;20125;-77
2023/06/20 03:30:15;;;;;;;15.88;12.68;;;;;;;;;;4995544;28;20100;-78
2023/06/20 03:32:41;;;;;;;20.20;13.05;;;;;;;;;;4991224;28;20080;-77
2023/06/20 03:35:07;;;;;;;17.30;13.52;;;;;;;;;;4991514;28;20034;-78
2023/06/20 03:37:33;;;;;;;17.00;12.82;;;;;;;;;;4990372;28;20030;-78
2023/06/20 03:39:58;;;;;;;18.98;12.77;;;;;;;;;;4991015;28;20365;-78
2023/06/20 03:42:24;;;;;;;18.92;12.30;;;;;;;;;;4991113;28;20117;-78
2023/06/20 03:44:49;;;;;;;20.50;13.32;;;;;;;;;;4990957;28;20022;-79
2023/06/20 03:47:15;;;;;;;22.75;13.73;;;;;;;;;;4992535;28;20042;-79
2023/06/20 03:49:41;;;;;;;18.98;13.27;;;;;;;;;;4991004;28;20043;-79
2023/06/20 03:52:07;;;;;;;15.88;12.68;;;;;;;;;;4991390;28;20030;-78
2023/06/20 03:54:41;;;;;;;22.38;13.10;;;;;;;;;;4992858;28;20029;-79
2023/06/20 03:57:06;;;;;;;16.88;12.95;;;;;;;;;;4993396;28;20032;-79
2023/06/20 03:59:32;;;;;;;20.13;12.93;;;;;;;;;;4994147;28;20101;-77
2023/06/20 04:01:58;;;;;;;19.23;13.23;;;;;;;;;;4992850;28;20045;-78
2023/06/20 04:04:24;;;;;;;22.30;14.00;;;;;;;;;;4994535;28;20053;-78
2023/06/20 04:06:50;;;;;;;17.92;13.70;;;;;;;;;;4998231;28;20034;-78
2023/06/20 04:09:19;;;;;;;17.83;12.15;;;;;;;;;;4996993;28;20640;-78
2023/06/20 04:11:46;;;;;;;19.38;13.65;;;;;;;;;;4998073;28;20084;-78
2023/06/20 04:14:11;;;;;;;22.20;13.10;;;;;;;;;;4994302;28;20037;-78
2023/06/20 04:16:37;;;;;;;20.75;12.98;;;;;;;;;;4993231;28;20027;-78
2023/06/20 04:19:03;;;;;;;18.17;12.70;;;;;;;;;;4992579;28;20608;-78
2023/06/20 04:21:31;;;;;;;28.77;13.38;;;;;;;;;;4992522;28;20022;-78
2023/06/20 04:23:57;;;;;;;17.02;12.63;;;;;;;;;;4994682;28;20036;-78
2023/06/20 04:26:23;;;;;;;19.75;13.00;;;;;;;;;;5011048;28;20023;-79
2023/06/20 04:28:49;;;;;;;17.27;13.27;;;;;;;;;;5006433;28;20056;-77
2023/06/20 04:31:14;;;;;;;18.92;13.55;;;;;;;;;;5001597;28;20067;-79
2023/06/20 04:33:46;;;;;;;18.38;13.55;;;;;;;;;;5010433;28;20032;-79
2023/06/20 04:36:14;;;;;;;19.40;14.23;;;;;;;;;;4994007;28;20097;-78
2023/06/20 04:38:41;;;;;;;23.75;14.00;;;;;;;;;;4989955;28;20030;-79
2023/06/20 04:41:07;;;;;;;19.30;14.23;;;;;;;;;;5011084;28;20285;-78
2023/06/20 04:43:32;;;;;;;16.52;13.15;;;;;;;;;;5009469;28;20033;-78
2023/06/20 04:45:59;;;;;;;14.30;12.77;;;;;;;;;;5000837;28;20450;-79
2023/06/20 04:48:37;;;;;;;18.80;14.43;;;;;;;;;;5006968;28;20124;-79
2023/06/20 04:51:11;;;;;;;18.55;14.00;;;;;;;;;;5002519;28;20111;-80
2023/06/20 04:53:37;;;;;;;18.60;13.35;;;;;;;;;;5011538;28;20311;-77
2023/06/20 04:56:05;;;;;;;17.40;13.55;;;;;;;;;;4998696;28;20074;-79
2023/06/20 04:58:31;;;;;;;20.95;15.00;;;;;;;;;;5006182;28;20064;-77
2023/06/20 05:00:57;;;;;;;57.08;17.95;;;;;;;;;;5011586;28;20150;-78
2023/06/20 05:03:23;;;;;;;24.50;14.48;;;;;;;;;;5021276;28;20458;-77
2023/06/20 05:05:49;;;;;;;17.23;14.35;;;;;;;;;;5003248;28;20026;-82
2023/06/20 05:08:15;;;;;;;17.88;14.45;;;;;;;;;;5011310;28;20040;-83
2023/06/20 05:10:40;;;;;;;18.15;14.60;;;;;;;;;;4998893;28;20124;-83
2023/06/20 05:13:06;;;;;;;20.80;14.57;;;;;;;;;;5003205;28;20032;-82
2023/06/20 05:15:31;;;;;;;18.85;15.35;;;;;;;;;;5005091;28;20033;-81
2023/06/20 05:17:57;;;;;;;22.88;14.63;;;;;;;;;;5002020;28;20065;-82
2023/06/20 05:20:22;;;;;;;25.48;14.85;;;;;;;;;;5001745;28;20051;-77
2023/06/20 05:22:48;;;;;;;19.27;13.98;;;;;;;;;;5024494;28;20050;-80
2023/06/20 05:25:14;;;;;;;21.08;13.15;;;;;;;;;;5012412;28;20030;-80
2023/06/20 05:27:40;;;;;;;22.65;15.40;;;;;;;;;;4997888;28;20045;-83
2023/06/20 05:30:05;;;;;;;20.90;15.35;;;;;;;;;;4994267;28;20041;-86
2023/06/20 05:32:31;;;;;;;19.70;14.52;;;;;;;;;;5009121;28;20030;-84
2023/06/20 05:34:57;;;;;;;20.67;15.13;;;;;;;;;;5002158;28;20088;-77
2023/06/20 05:37:22;;;;;;;24.50;14.63;;;;;;;;;;5006422;28;20052;-85
2023/06/20 05:39:48;;;;;;;24.23;15.25;;;;;;;;;;5026430;28;20022;-80
2023/06/20 05:42:13;;;;;;;23.45;14.25;;;;;;;;;;5004985;28;20045;-80
2023/06/20 05:44:39;;;;;;;26.05;14.07;;;;;;;;;;4999640;28;20452;-85
2023/06/20 05:47:05;;;;;;;17.83;13.65;;;;;;;;;;5005098;28;20048;-79
2023/06/20 05:49:31;;;;;;;21.48;13.68;;;;;;;;;;4998183;28;20533;-84
2023/06/20 05:52:00;;;;;;;20.00;14.00;;;;;;;;;;4992567;28;20042;-82
2023/06/20 05:54:25;;;;;;;18.30;14.00;;;;;;;;;;5003985;28;20029;-80
2023/06/20 05:56:52;;;;;;;28.10;14.70;;;;;;;;;;5031048;28;20022;-82
2023/06/20 05:59:18;;;;;;;17.63;14.23;;;;;;;;;;5013388;28;20026;-79
2023/06/20 06:01:45;;;;;;;29.80;14.95;;;;;;;;;;5009645;28;20528;-85
2023/06/20 06:04:11;;;;;;;17.55;13.98;;;;;;;;;;5009357;28;20037;-80
2023/06/20 06:06:37;;;;;;;18.00;13.88;;;;;;;;;;5009098;28;20130;-78
2023/06/20 06:09:04;;;;;;;19.30;14.20;;;;;;;;;;5000990;28;20045;-80
2023/06/20 06:11:36;;;;;;;22.25;15.32;;;;;;;;;;5005543;28;20073;-80
2023/06/20 06:14:02;;;;;;;21.95;14.50;;;;;;;;;;5013416;28;20049;-82
2023/06/20 06:16:32;;;;;;;18.08;13.57;;;;;;;;;;5013022;28;20199;-83
2023/06/20 06:19:02;;;;;;;19.15;13.70;;;;;;;;;;5012305;28;20025;-84
2023/06/20 06:21:28;;;;;;;21.40;15.17;;;;;;;;;;5009848;28;20129;-79
2023/06/20 06:23:54;;;;;;;31.20;19.77;;;;;;;;;;5010555;28;20025;-78
2023/06/20 06:26:20;;;;;;;24.02;14.43;;;;;;;;;;5006831;28;20124;-79
2023/06/20 06:28:49;;;;;;;19.88;13.48;;;;;;;;;;5004949;28;20526;-79
2023/06/20 06:31:24;;;;;;;22.55;13.73;;;;;;;;;;5008388;28;20030;-78
2023/06/20 06:33:56;;;;;;;19.45;14.10;;;;;;;;;;4998922;28;20043;-76
2023/06/20 06:36:24;;;;;;;21.70;14.25;;;;;;;;;;5005614;28;20034;-73
2023/06/20 06:38:53;;;;;;;24.15;14.88;;;;;;;;;;5001190;28;20060;-78
2023/06/20 06:41:19;;;;;;;21.02;14.48;;;;;;;;;;5000917;28;20030;-78
2023/06/20 06:43:48;;;;;;;21.90;15.23;;;;;;;;;;5023828;28;20041;-76
2023/06/20 06:46:14;;;;;;;21.33;13.38;;;;;;;;;;5000301;28;20030;-75
2023/06/20 06:48:40;;;;;;;21.92;14.40;;;;;;;;;;4999992;28;20034;-75
2023/06/20 06:51:06;;;;;;;22.48;13.85;;;;;;;;;;4999867;28;20470;-76
2023/06/20 06:53:32;;;;;;;18.13;13.05;;;;;;;;;;4992435;28;20026;-76
2023/06/20 06:56:31;;;;;;;17.73;13.95;;;;;;;;;;4996462;28;20033;-75
2023/06/20 07:02:45;;;;;;;28.23;13.55;;;;;;;;;;4994206;28;20038;-78
2023/06/20 07:05:12;;;;;;;21.02;14.95;;;;;;;;;;4987492;28;20048;-74
2023/06/20 07:07:37;;;;;;;20.40;14.23;;;;;;;;;;5011350;28;20041;-77
2023/06/20 07:10:22;;;;;;;24.85;13.57;;;;;;;;;;4999292;28;20026;-76
2023/06/20 07:12:48;;;;;;;27.27;13.40;;;;;;;;;;4998869;28;20065;-77
2023/06/20 07:15:14;;;;;;;17.20;13.23;;;;;;;;;;5005841;28;20060;-79
2023/06/20 07:17:45;;;;;;;24.08;13.30;;;;;;;;;;5003574;28;20058;-78
2023/06/20 07:20:11;;;;;;;18.77;13.25;;;;;;;;;;5002327;28;20034;-76
2023/06/20 07:22:37;;;;;;;26.83;13.18;;;;;;;;;;5014370;28;20064;-75
2023/06/20 07:25:08;;;;;;;24.48;13.05;;;;;;;;;;5019599;28;20561;-78
2023/06/20 07:27:35;;;;;;;19.83;12.32;;;;;;;;;;4992792;28;20065;-79
2023/06/20 07:30:01;;;;;;;17.52;12.07;;;;;;;;;;4998750;28;20113;-77
2023/06/20 07:32:27;;;;;;;24.02;13.68;;;;;;;;;;5007943;28;20169;-80
2023/06/20 07:34:54;;;;;;;17.00;12.85;;;;;;;;;;5000668;28;20042;-76
2023/06/20 07:37:23;;;;;;;16.73;12.07;;;;;;;;;;4994930;28;20038;-79
2023/06/20 07:39:49;;;;;;;18.35;13.30;;;;;;;;;;4998352;28;20034;-78
2023/06/20 07:42:14;;;;;;;17.10;12.40;;;;;;;;;;5002855;28;20053;-79
2023/06/20 07:44:43;;;;;;;14.65;11.93;;;;;;;;;;4997843;28;20084;-77
2023/06/20 07:47:10;;;;;;;18.20;13.32;;;;;;;;;;4995767;28;20054;-77
2023/06/20 07:49:39;;;;;;;18.00;13.63;;;;;;;;;;4996190;28;20637;-76
2023/06/20 07:52:06;;;;;;;17.27;13.00;;;;;;;;;;5007146;28;20048;-78
2023/06/20 07:54:38;;;;;;;18.88;13.13;;;;;;;;;;5006212;28;20030;-78
2023/06/20 07:57:31;;;;;;;19.70;14.05;;;;;;;;;;5002764;28;20038;-79
2023/06/20 07:59:57;;;;;;;16.13;12.52;;;;;;;;;;5004142;28;20096;-78
2023/06/20 08:02:23;;;;;;;17.73;13.07;;;;;;;;;;5001950;28;20037;-77
2023/06/20 08:04:53;;;;;;;23.05;14.20;;;;;;;;;;5003756;28;20025;-80
2023/06/20 08:07:25;;;;;;;14.52;12.73;;;;;;;;;;5021896;28;20986;-79
2023/06/20 08:09:55;;;;;;;18.52;13.63;;;;;;;;;;5007438;28;20057;-75
2023/06/20 08:12:22;;;;;;;16.75;12.93;;;;;;;;;;5007803;28;20026;-78
2023/06/20 08:14:54;;;;;;;23.05;16.80;;;;;;;;;;5005317;28;20038;-77
2023/06/20 08:17:23;;;;;;;18.70;12.73;;;;;;;;;;5006032;28;20040;-76
2023/06/20 08:19:51;;;;;;;15.57;12.48;;;;;;;;;;4996055;28;20034;-74
2023/06/20 08:22:17;;;;;;;21.63;13.23;;;;;;;;;;4999085;28;20035;-78
2023/06/20 08:24:44;;;;;;;18.92;12.50;;;;;;;;;;5006985;28;20088;-80
2023/06/20 08:27:17;;;;;;;25.40;12.65;;;;;;;;;;4976583;28;20065;-76
2023/06/20 08:29:44;;;;;;;15.75;12.52;;;;;;;;;;4999691;28;20042;-79
2023/06/20 08:32:10;;;;;;;23.17;13.85;;;;;;;;;;4996624;28;20740;-76
2023/06/20 08:34:36;;;;;;;21.08;14.23;;;;;;;;;;4990220;28;20141;-74
2023/06/20 08:37:02;;;;;;;17.55;12.45;;;;;;;;;;4998321;28;20026;-79
2023/06/20 08:39:29;;;;;;;19.10;12.00;;;;;;;;;;4991432;28;20026;-75
2023/06/20 08:41:55;;;;;;;16.50;13.10;;;;;;;;;;4995680;28;20693;-78
2023/06/20 08:44:27;;;;;;;14.02;11.88;;;;;;;;;;4991060;28;20026;-76
2023/06/20 08:46:57;;;;;;;18.83;12.07;;;;;;;;;;5007648;28;20533;-75
2023/06/20 08:49:25;;;;;;;16.85;12.05;;;;;;;;;;4991938;28;20041;-77
2023/06/20 08:51:57;;;;;;;15.75;12.63;;;;;;;;;;4997636;28;20117;-76
2023/06/20 08:54:31;;;;;;;15.43;11.73;;;;;;;;;;4996555;28;20039;-76
2023/06/20 08:56:59;;;;;;;17.33;12.60;;;;;;;;;;5002356;28;20033;-75
2023/06/20 08:59:25;;;;;;;29.73;12.90;;;;;;;;;;4989005;28;20383;-77
2023/06/20 09:01:51;;;;;;;15.60;12.23;;;;;;;;;;4999312;28;20028;-76
2023/06/20 09:04:18;;;;;;;15.50;10.93;;;;;;;;;;4992877;28;20128;-79
2023/06/20 09:06:45;;;;;;;18.50;12.95;;;;;;;;;;4996574;28;20033;-75
2023/06/20 09:09:18;;;;;;;13.80;11.55;;;;;;;;;;4986391;28;20070;-75
2023/06/20 09:11:58;;;;;;;14.32;11.82;;;;;;;;;;4997220;28;20045;-77
2023/06/20 09:14:28;;;;;;;15.60;10.85;;;;;;;;;;4988653;28;20037;-77
2023/06/20 09:16:55;;;;;;;18.52;11.55;;;;;;;;;;4996823;28;20474;-76
2023/06/20 09:19:22;;;;;;;19.50;12.93;;;;;;;;;;4990311;28;20041;-77
2023/06/20 09:21:48;;;;;;;14.15;11.98;;;;;;;;;;4983974;28;20077;-75
2023/06/20 09:24:24;;;;;;;14.40;11.27;;;;;;;;;;4997170;28;20068;-77
2023/06/20 09:26:50;;;;;;;14.93;11.75;;;;;;;;;;4996723;28;20049;-77
2023/06/20 09:29:17;;;;;;;16.58;11.90;;;;;;;;;;4992035;28;20633;-76
2023/06/20 09:31:45;;;;;;;15.48;11.13;;;;;;;;;;4995715;28;20088;-75
2023/06/20 09:34:20;;;;;;;13.73;11.73;;;;;;;;;;4991062;28;20185;-76
2023/06/20 09:36:46;;;;;;;22.85;12.45;;;;;;;;;;4992641;28;20034;-77
2023/06/20 09:39:20;;;;;;;19.38;12.02;;;;;;;;;;4990091;28;20077;-76
2023/06/20 09:41:50;;;;;;;13.63;11.02;;;;;;;;;;4991994;28;20424;-76
2023/06/20 09:44:17;;;;;;;14.68;11.20;;;;;;;;;;4992367;28;20038;-78
2023/06/20 09:46:44;;;;;;;17.05;11.70;;;;;;;;;;4993803;28;20368;-79
2023/06/20 09:49:14;;;;;;;14.80;11.70;;;;;;;;;;4991585;28;20037;-78
2023/06/20 09:51:54;;;;;;;13.43;10.68;;;;;;;;;;4999915;28;20032;-76
2023/06/20 09:54:34;;;;;;;12.73;10.03;;;;;;;;;;5007327;28;20030;-79
2023/06/20 09:57:06;;;;;;;13.90;10.00;;;;;;;;;;4992190;28;20506;-78
2023/06/20 09:59:34;;;;;;;12.60;10.85;;;;;;;;;;4987778;28;20074;-77
2023/06/20 10:02:02;;;;;;;19.00;11.25;;;;;;;;;;4990349;28;20022;-77
2023/06/20 10:04:30;;;;;;;13.20;9.85;;;;;;;;;;4997215;28;20037;-76
2023/06/20 10:06:58;;;;;;;13.60;10.13;;;;;;;;;;4994334;28;20072;-76
2023/06/20 10:09:24;;;;;;;16.88;11.93;;;;;;;;;;4991742;28;20039;-77
2023/06/20 10:11:50;;;;;;;16.52;10.95;;;;;;;;;;4994319;28;20034;-77
2023/06/20 10:14:18;;;;;;;13.57;10.50;;;;;;;;;;4992523;28;20030;-77
2023/06/20 10:16:54;;;;;;;11.48;10.27;;;;;;;;;;4990409;28;20030;-75
2023/06/20 10:19:20;;;;;;;11.68;10.43;;;;;;;;;;4980519;28;20698;-75
2023/06/20 10:21:59;;;;;;;16.45;10.20;;;;;;;;;;4982553;28;20089;-75
2023/06/20 10:24:29;;;;;;;13.90;9.80;;;;;;;;;;5014462;28;20103;-76
2023/06/20 10:27:03;;;;;;;12.00;10.23;;;;;;;;;;5001423;28;20022;-76
2023/06/20 10:29:29;;;;;;;14.02;10.57;;;;;;;;;;4986880;28;20068;-76
2023/06/20 10:32:00;;;;;;;13.88;10.02;;;;;;;;;;5000595;28;20030;-77
2023/06/20 10:34:35;;;;;;;12.55;10.27;;;;;;;;;;4992130;28;20065;-75
2023/06/20 10:37:15;;;;;;;14.27;11.00;;;;;;;;;;4985841;28;20044;-76
2023/06/20 10:39:56;;;;;;;11.45;10.20;;;;;;;;;;4981630;28;20394;-76
2023/06/20 10:42:43;;;;;;;14.77;11.80;;;;;;;;;;4989503;28;20034;-76
2023/06/20 10:45:21;;;;;;;15.63;9.95;;;;;;;;;;4995796;28;20062;-78
2023/06/20 10:47:48;;;;;;;13.27;10.75;;;;;;;;;;4994968;28;20026;-79
2023/06/20 10:50:14;;;;;;;14.70;10.70;;;;;;;;;;4997938;28;20114;-76
2023/06/20 10:52:41;;;;;;;17.48;11.20;;;;;;;;;;5004904;28;20036;-81
2023/06/20 10:55:22;;;;;;;11.65;10.40;;;;;;;;;;4994147;28;20092;-78
2023/06/20 10:57:49;;;;;;;14.80;10.38;;;;;;;;;;5000467;28;20637;-78
2023/06/20 11:00:19;;;;;;;12.93;9.90;;;;;;;;;;5014964;28;20466;-78
2023/06/20 11:02:53;;;;;;;12.15;9.68;;;;;;;;;;4989355;28;20235;-77
2023/06/20 11:05:24;;;;;;;13.85;10.20;;;;;;;;;;4991526;28;20491;-77
2023/06/20 11:07:57;;;;;;;11.30;9.55;;;;;;;;;;4992754;28;20113;-79
2023/06/20 11:10:30;;;;;;;15.00;9.32;;;;;;;;;;4990520;28;20014;-77
2023/06/20 11:13:00;;;;;;;10.82;9.68;;;;;;;;;;5000203;28;20025;-77
2023/06/20 11:15:28;;;;;;;11.30;10.10;;;;;;;;;;5000788;28;20030;-76
2023/06/20 11:17:56;;;;;;;11.75;10.48;;;;;;;;;;5017375;28;20065;-75
2023/06/20 11:20:24;;;;;;;11.25;10.05;;;;;;;;;;4997287;28;20014;-76
2023/06/20 11:22:57;;;;;;;15.43;10.25;;;;;;;;;;5005725;28;20065;-77
2023/06/20 11:25:25;;;;;;;14.15;9.68;;;;;;;;;;4998406;28;20552;-76
2023/06/20 11:27:54;;;;;;;11.98;9.25;;;;;;;;;;5000858;28;20464;-77
2023/06/20 11:30:27;;;;;;;11.27;8.77;;;;;;;;;;4999570;28;20089;-77
2023/06/20 11:33:08;;;;;;;11.10;9.40;;;;;;;;;;5003393;28;20032;-76
2023/06/20 11:35:43;;;;;;;;;;;;;;;;;;5003393;28;20484;-78
2023/06/20 11:38:11;;;;;;;16.02;9.45;;;;;;;;;;5011713;28;19940;-76
2023/06/20 11:40:38;;;;;;;10.73;9.23;;;;;;;;;;5011931;28;20101;-80
2023/06/20 11:43:04;;;;;;;12.30;9.13;;;;;;;;;;5001353;28;20053;-76
2023/06/20 11:45:32;;;;;;;18.40;9.90;;;;;;;;;;4999672;28;20574;-77
2023/06/20 11:48:28;;;;;;;10.18;8.77;;;;;;;;;;5000592;28;20043;-78
2023/06/20 11:51:02;;;;;;;18.95;9.63;;;;;;;;;;4987875;28;20041;-78
2023/06/20 11:53:33;;;;;;;12.90;8.55;;;;;;;;;;5002839;28;20117;-78
2023/06/20 11:56:03;;;;;;;9.88;8.80;;;;;;;;;;4985383;28;20111;-77
2023/06/20 11:58:42;;;;;;;13.27;8.43;;;;;;;;;;4986734;28;20041;-76
2023/06/20 12:01:10;;;;;;;12.60;8.50;;;;;;;;;;4997731;28;20080;-76
2023/06/20 12:03:41;;;;;;;9.93;8.93;;;;;;;;;;4990938;28;20026;-77
2023/06/20 12:06:48;;;;;;;15.55;9.00;;;;;;;;;;4997297;28;20022;-77
2023/06/20 12:09:16;;;;;;;10.32;8.20;;;;;;;;;;4995618;28;20202;-77
2023/06/20 12:11:56;;;;;;;14.55;8.90;;;;;;;;;;4996732;28;20038;-75
2023/06/20 12:14:24;;;;;;;9.65;8.65;;;;;;;;;;4993162;28;20149;-76
2023/06/20 12:16:51;;;;;;;10.32;9.27;;;;;;;;;;4996314;28;20030;-77
2023/06/20 12:19:22;;;;;;;10.70;9.30;;;;;;;;;;4993577;28;20030;-76
2023/06/20 12:21:49;;;;;;;11.82;10.10;;;;;;;;;;4992166;28;20054;-75
2023/06/20 12:24:16;;;;;;;18.38;12.27;;;;;;;;;;4985232;28;20364;-76
2023/06/20 12:26:46;;;;;;;21.10;12.13;;;;;;;;;;4999119;28;20470;-76
2023/06/20 12:29:12;;;;;;;14.93;11.57;;;;;;;;;;4993861;28;20078;-77
2023/06/20 12:31:39;;;;;;;15.35;12.95;;;;;;;;;;5006511;28;20662;-77
2023/06/20 12:34:05;;;;;;;22.63;14.40;;;;;;;;;;4998244;28;20038;-78
2023/06/20 12:36:32;;;;;;;18.15;11.90;;;;;;;;;;5001109;28;20088;-78
2023/06/20 12:38:58;;;;;;;16.88;11.77;;;;;;;;;;4994416;28;20129;-77
2023/06/20 12:41:23;;;;;;;12.93;11.48;;;;;;;;;;4993590;28;20120;-79
2023/06/20 12:43:51;;;;;;;13.13;11.05;;;;;;;;;;4992529;28;20041;-78
2023/06/20 12:46:17;;;;;;;19.55;11.95;;;;;;;;;;4997163;28;20482;-79
2023/06/20 12:48:43;;;;;;;18.08;11.90;;;;;;;;;;4992671;28;20065;-76
2023/06/20 12:51:10;;;;;;;14.18;12.68;;;;;;;;;;5013791;28;20177;-76
2023/06/20 12:53:36;;;;;;;21.15;12.65;;;;;;;;;;4995529;28;20125;-76
2023/06/20 12:56:02;;;;;;;14.77;12.38;;;;;;;;;;4993646;28;20044;-77
2023/06/20 12:58:32;;;;;;;21.88;13.68;;;;;;;;;;5000778;28;20034;-76
2023/06/20 13:00:57;;;;;;;15.27;12.68;;;;;;;;;;4993752;28;20036;-77
2023/06/20 13:03:23;;;;;;;15.57;12.52;;;;;;;;;;5007966;28;20030;-77
2023/06/20 13:05:49;;;;;;;13.68;12.20;;;;;;;;;;4997294;28;20490;-78
2023/06/20 13:08:15;;;;;;;19.65;13.30;;;;;;;;;;4992410;28;20030;-76
2023/06/20 13:10:41;;;;;;;20.83;12.93;;;;;;;;;;4992857;28;20018;-78
2023/06/20 13:13:07;;;;;;;19.77;12.43;;;;;;;;;;4993108;28;20379;-76
2023/06/20 13:15:33;;;;;;;18.88;13.57;;;;;;;;;;4996388;28;20057;-77
2023/06/20 13:18:03;;;;;;;15.52;12.85;;;;;;;;;;4993436;28;20070;-76
2023/06/20 13:20:30;;;;;;;15.63;12.50;;;;;;;;;;4986437;28;20027;-77
2023/06/20 13:22:56;;;;;;;15.73;12.25;;;;;;;;;;4995536;28;20659;-78
2023/06/20 13:25:23;;;;;;;16.23;12.82;;;;;;;;;;4999659;28;20053;-77
2023/06/20 13:27:50;;;;;;;19.98;12.38;;;;;;;;;;5001157;28;20027;-78
2023/06/20 13:30:17;;;;;;;16.77;13.30;;;;;;;;;;5000494;28;20030;-77
2023/06/20 13:32:44;;;;;;;14.98;12.73;;;;;;;;;;4987727;28;20045;-79
2023/06/20 13:35:10;;;;;;;17.77;12.13;;;;;;;;;;4998804;28;20066;-77
2023/06/20 13:37:37;;;;;;;15.38;12.65;;;;;;;;;;4990087;28;20025;-79
2023/06/20 13:40:07;;;;;;;18.48;11.77;;;;;;;;;;4994951;28;20030;-77
2023/06/20 13:42:41;;;;;;;15.48;11.45;;;;;;;;;;4990239;28;20029;-77
2023/06/20 13:45:14;;;;;;;15.20;11.82;;;;;;;;;;5013877;28;20030;-77
2023/06/20 13:47:40;;;;;;;16.42;10.82;;;;;;;;;;4991603;28;20050;-78
2023/06/20 13:50:07;;;;;;;12.45;11.27;;;;;;;;;;4993226;28;20024;-77
2023/06/20 13:52:39;;;;;;;13.80;12.40;;;;;;;;;;4998729;28;20423;-77
2023/06/20 13:55:06;;;;;;;13.18;10.10;;;;;;;;;;5006344;28;20053;-76
2023/06/20 13:57:32;;;;;;;22.73;10.43;;;;;;;;;;4996669;28;20022;-76
2023/06/20 14:00:05;;;;;;;17.95;10.90;;;;;;;;;;4991525;28;20030;-77
2023/06/20 14:02:31;;;;;;;12.82;10.55;;;;;;;;;;4994233;28;20090;-77
2023/06/20 14:04:56;;;;;;;22.95;12.50;;;;;;;;;;4996667;28;20030;-77
2023/06/20 14:07:23;;;;;;;13.35;10.20;;;;;;;;;;5000407;28;20041;-78
2023/06/20 14:09:49;;;;;;;12.85;10.85;;;;;;;;;;4991119;28;20113;-77
2023/06/20 14:12:15;;;;;;;12.52;10.32;;;;;;;;;;4993852;28;20038;-77
2023/06/20 14:14:40;;;;;;;11.05;9.75;;;;;;;;;;5000522;28;20473;-77
2023/06/20 14:17:06;;;;;;;19.40;10.35;;;;;;;;;;4999882;28;20408;-77
2023/06/20 14:19:34;;;;;;;10.95;9.52;;;;;;;;;;5004904;28;20130;-76
2023/06/20 14:22:00;;;;;;;12.55;10.00;;;;;;;;;;5002282;28;20105;-77
2023/06/20 14:24:30;;;;;;;19.27;10.65;;;;;;;;;;4996677;28;20037;-77
2023/06/20 14:26:57;;;;;;;;;;;;;;;;;;5011972;28;20041;-77
2023/06/20 14:29:23;;;;;;;10.57;9.27;;;;;;;;;;5002497;28;19917;-76
2023/06/20 14:31:53;;;;;;;10.05;8.95;;;;;;;;;;5001082;28;20026;-77